CheckWX is a tool to help pilots better visualize weather data.  It is not intended as a substitute for an official pre-flight weather briefing.

09:38:36 UTC

KDLS METAR
Columbia Gorge Regional / The Dalles Municipal Airport
The Dalles, Oregon, USA
Current

46 mins ago

KDLS 200853Z AUTO 18006KT 10SM CLR 02/00 A2981 RMK AO2 SLP095 60001 T00220000 56024
Observed
Feb-20 @ 08:53 UTC
Wind
  • 180° at 6 KTS
Visibility
16,093 meters
Flight Rules
VFR
Cloud Levels
  • Clear skies
Temperature
C / 36°F
Dewpoint
C / 32°F
Humidity
87%
Altimeter
29.81" Hg
Pressure
1009.5 hPa
Previous

2 hours ago

KDLS 200753Z AUTO 32010KT 10SM CLR 03/00 A2982 RMK AO2 SLP100 T00330000 400611017
Observed
Feb-20 @ 07:53 UTC
Wind
  • 320° at 10 KTS
Visibility
16,093 meters
Flight Rules
VFR
Cloud Levels
  • Clear skies
Temperature
C / 37°F
Dewpoint
C / 32°F
Humidity
81%
Altimeter
29.82" Hg
Pressure
1010 hPa
Previous

3 hours ago

KDLS 200653Z AUTO VRB03KT 10SM FEW030 BKN045 OVC110 03/01 A2985 RMK AO2 UPB0554E18B37E47RAB04E19 SLP110 P0001 T00280006
Observed
Feb-20 @ 06:53 UTC
Wind
  • Variable at 3 KTS
Visibility
16,093 meters
Flight Rules
VFR
Cloud Levels
  • Few at 3,000' AGL
  • Broken at 4,500' AGL
  • Overcast at 11,000' AGL
Temperature
C / 37°F
Dewpoint
C / 34°F
Humidity
87%
Altimeter
29.85" Hg
Pressure
1011 hPa
Current Rain
0.01"